sensor_id;sensor_type;location;lat;lon;timestamp;temperature;humidity
47490;DHT22;33226;56.996;14.584;2022-08-16T00:02:13;18.70;99.90
47490;DHT22;33226;56.996;14.584;2022-08-16T00:04:39;18.70;99.90
47490;DHT22;33226;56.996;14.584;2022-08-16T00:07:05;18.60;99.90
47490;DHT22;33226;56.996;14.584;2022-08-16T00:09:30;18.60;99.90
47490;DHT22;33226;56.996;14.584;2022-08-16T00:11:56;18.60;99.90
47490;DHT22;33226;56.996;14.584;2022-08-16T00:14:27;18.50;99.90
47490;DHT22;33226;56.996;14.584;2022-08-16T00:16:53;18.50;99.90
47490;DHT22;33226;56.996;14.584;2022-08-16T00:19:23;18.40;99.90
47490;DHT22;33226;56.996;14.584;2022-08-16T00:21:49;18.40;99.90
47490;DHT22;33226;56.996;14.584;2022-08-16T00:24:16;18.40;99.90
47490;DHT22;33226;56.996;14.584;2022-08-16T00:26:42;18.30;99.90
47490;DHT22;33226;56.996;14.584;2022-08-16T00:29:08;18.30;99.90
47490;DHT22;33226;56.996;14.584;2022-08-16T00:31:34;18.30;99.90
47490;DHT22;33226;56.996;14.584;2022-08-16T00:34:01;18.30;99.90
47490;DHT22;33226;56.996;14.584;2022-08-16T00:36:27;18.20;99.90
47490;DHT22;33226;56.996;14.584;2022-08-16T00:38:53;18.20;99.90
47490;DHT22;33226;56.996;14.584;2022-08-16T00:41:20;18.30;99.90
47490;DHT22;33226;56.996;14.584;2022-08-16T00:43:46;18.20;99.90
47490;DHT22;33226;56.996;14.584;2022-08-16T00:46:25;18.20;99.90
47490;DHT22;33226;56.996;14.584;2022-08-16T00:48:52;18.10;99.90
47490;DHT22;33226;56.996;14.584;2022-08-16T00:51:20;18.00;99.90
47490;DHT22;33226;56.996;14.584;2022-08-16T00:53:47;18.00;99.90
47490;DHT22;33226;56.996;14.584;2022-08-16T00:56:17;18.00;99.90
47490;DHT22;33226;56.996;14.584;2022-08-16T00:58:45;18.00;99.90
47490;DHT22;33226;56.996;14.584;2022-08-16T01:01:14;18.00;99.90
47490;DHT22;33226;56.996;14.584;2022-08-16T01:03:43;18.00;99.90
47490;DHT22;33226;56.996;14.584;2022-08-16T01:06:10;18.00;99.90
47490;DHT22;33226;56.996;14.584;2022-08-16T01:08:36;18.00;99.90
47490;DHT22;33226;56.996;14.584;2022-08-16T01:11:04;18.10;99.90
47490;DHT22;33226;56.996;14.584;2022-08-16T01:13:32;18.10;99.90
47490;DHT22;33226;56.996;14.584;2022-08-16T01:16:15;18.20;99.90
47490;DHT22;33226;56.996;14.584;2022-08-16T01:21:36;18.30;99.90
47490;DHT22;33226;56.996;14.584;2022-08-16T01:24:17;18.30;99.90
47490;DHT22;33226;56.996;14.584;2022-08-16T01:26:46;18.40;99.90
47490;DHT22;33226;56.996;14.584;2022-08-16T01:29:17;18.40;99.90
47490;DHT22;33226;56.996;14.584;2022-08-16T01:31:44;18.40;99.90
47490;DHT22;33226;56.996;14.584;2022-08-16T01:34:12;18.40;99.90
47490;DHT22;33226;56.996;14.584;2022-08-16T01:36:38;18.40;99.90
47490;DHT22;33226;56.996;14.584;2022-08-16T01:39:14;18.40;99.90
47490;DHT22;33226;56.996;14.584;2022-08-16T01:41:41;18.40;99.90
47490;DHT22;33226;56.996;14.584;2022-08-16T01:44:07;18.50;99.90
47490;DHT22;33226;56.996;14.584;2022-08-16T01:46:37;18.50;99.90
47490;DHT22;33226;56.996;14.584;2022-08-16T01:51:35;18.50;99.90
47490;DHT22;33226;56.996;14.584;2022-08-16T01:54:02;18.40;99.90
47490;DHT22;33226;56.996;14.584;2022-08-16T01:56:28;18.40;99.90
47490;DHT22;33226;56.996;14.584;2022-08-16T01:58:56;18.40;99.90
47490;DHT22;33226;56.996;14.584;2022-08-16T02:01:23;18.40;99.90
47490;DHT22;33226;56.996;14.584;2022-08-16T02:03:49;18.30;99.90
47490;DHT22;33226;56.996;14.584;2022-08-16T02:06:15;18.30;99.90
47490;DHT22;33226;56.996;14.584;2022-08-16T02:08:41;18.40;99.90
47490;DHT22;33226;56.996;14.584;2022-08-16T02:11:07;18.30;99.90
47490;DHT22;33226;56.996;14.584;2022-08-16T02:13:35;18.30;99.90
47490;DHT22;33226;56.996;14.584;2022-08-16T02:16:02;18.30;99.90
47490;DHT22;33226;56.996;14.584;2022-08-16T02:18:29;18.30;99.90
47490;DHT22;33226;56.996;14.584;2022-08-16T02:20:55;18.20;99.90
47490;DHT22;33226;56.996;14.584;2022-08-16T02:23:21;18.20;99.90
47490;DHT22;33226;56.996;14.584;2022-08-16T02:25:47;18.20;99.90
47490;DHT22;33226;56.996;14.584;2022-08-16T02:28:14;18.20;99.90
47490;DHT22;33226;56.996;14.584;2022-08-16T02:30:39;18.10;99.90
47490;DHT22;33226;56.996;14.584;2022-08-16T02:33:06;18.10;99.90
47490;DHT22;33226;56.996;14.584;2022-08-16T02:35:33;18.20;99.90
47490;DHT22;33226;56.996;14.584;2022-08-16T02:37:59;18.10;99.90
47490;DHT22;33226;56.996;14.584;2022-08-16T02:40:25;18.10;99.90
47490;DHT22;33226;56.996;14.584;2022-08-16T02:42:52;18.10;99.90
47490;DHT22;33226;56.996;14.584;2022-08-16T02:45:21;18.10;99.90
47490;DHT22;33226;56.996;14.584;2022-08-16T02:47:47;18.10;99.90
47490;DHT22;33226;56.996;14.584;2022-08-16T02:50:12;18.10;99.90
47490;DHT22;33226;56.996;14.584;2022-08-16T02:52:38;18.10;99.90
47490;DHT22;33226;56.996;14.584;2022-08-16T02:55:05;18.00;99.90
47490;DHT22;33226;56.996;14.584;2022-08-16T02:57:31;18.00;99.90
47490;DHT22;33226;56.996;14.584;2022-08-16T02:59:58;18.00;99.90
47490;DHT22;33226;56.996;14.584;2022-08-16T03:02:24;18.00;99.90
47490;DHT22;33226;56.996;14.584;2022-08-16T03:04:50;18.00;99.90
47490;DHT22;33226;56.996;14.584;2022-08-16T03:07:16;18.00;99.90
47490;DHT22;33226;56.996;14.584;2022-08-16T03:09:44;18.00;99.90
47490;DHT22;33226;56.996;14.584;2022-08-16T03:12:10;18.00;99.90
47490;DHT22;33226;56.996;14.584;2022-08-16T03:14:36;17.90;99.90
47490;DHT22;33226;56.996;14.584;2022-08-16T03:17:01;17.90;99.90
47490;DHT22;33226;56.996;14.584;2022-08-16T03:19:29;18.00;99.90
47490;DHT22;33226;56.996;14.584;2022-08-16T03:21:55;18.00;99.90
47490;DHT22;33226;56.996;14.584;2022-08-16T03:24:21;18.00;99.90
47490;DHT22;33226;56.996;14.584;2022-08-16T03:26:46;18.00;99.90
47490;DHT22;33226;56.996;14.584;2022-08-16T03:29:12;18.00;99.90
47490;DHT22;33226;56.996;14.584;2022-08-16T03:31:38;18.00;99.90
47490;DHT22;33226;56.996;14.584;2022-08-16T03:34:04;18.00;99.90
47490;DHT22;33226;56.996;14.584;2022-08-16T03:36:29;18.00;99.90
47490;DHT22;33226;56.996;14.584;2022-08-16T03:38:55;18.00;99.90
47490;DHT22;33226;56.996;14.584;2022-08-16T03:41:21;17.90;99.90
47490;DHT22;33226;56.996;14.584;2022-08-16T03:43:48;17.90;99.90
47490;DHT22;33226;56.996;14.584;2022-08-16T03:46:14;17.90;99.90
47490;DHT22;33226;56.996;14.584;2022-08-16T03:48:40;17.90;99.90
47490;DHT22;33226;56.996;14.584;2022-08-16T03:51:09;17.90;99.90
47490;DHT22;33226;56.996;14.584;2022-08-16T03:53:36;17.90;99.90
47490;DHT22;33226;56.996;14.584;2022-08-16T03:56:03;18.00;99.90
47490;DHT22;33226;56.996;14.584;2022-08-16T03:58:29;18.00;99.90
47490;DHT22;33226;56.996;14.584;2022-08-16T04:00:54;18.10;99.90
47490;DHT22;33226;56.996;14.584;2022-08-16T04:03:20;18.10;99.90
47490;DHT22;33226;56.996;14.584;2022-08-16T04:05:47;18.10;99.90
47490;DHT22;33226;56.996;14.584;2022-08-16T04:08:16;18.10;99.90
47490;DHT22;33226;56.996;14.584;2022-08-16T04:10:44;18.20;99.90
47490;DHT22;33226;56.996;14.584;2022-08-16T04:13:09;18.20;99.90
47490;DHT22;33226;56.996;14.584;2022-08-16T04:15:35;18.20;99.90
47490;DHT22;33226;56.996;14.584;2022-08-16T04:18:03;18.20;99.90
47490;DHT22;33226;56.996;14.584;2022-08-16T04:20:29;18.20;99.90
47490;DHT22;33226;56.996;14.584;2022-08-16T04:22:56;18.30;99.90
47490;DHT22;33226;56.996;14.584;2022-08-16T04:25:22;18.30;99.90
47490;DHT22;33226;56.996;14.584;2022-08-16T04:27:48;18.30;99.90
47490;DHT22;33226;56.996;14.584;2022-08-16T04:30:16;18.30;99.90
47490;DHT22;33226;56.996;14.584;2022-08-16T04:32:43;18.30;99.90
47490;DHT22;33226;56.996;14.584;2022-08-16T04:35:12;18.40;99.90
47490;DHT22;33226;56.996;14.584;2022-08-16T04:37:40;18.40;99.90
47490;DHT22;33226;56.996;14.584;2022-08-16T04:40:06;18.40;99.90
47490;DHT22;33226;56.996;14.584;2022-08-16T04:42:34;18.50;99.90
47490;DHT22;33226;56.996;14.584;2022-08-16T04:45:03;18.50;99.90
47490;DHT22;33226;56.996;14.584;2022-08-16T04:47:29;18.50;99.90
47490;DHT22;33226;56.996;14.584;2022-08-16T04:49:56;18.60;99.90
47490;DHT22;33226;56.996;14.584;2022-08-16T04:52:22;18.60;99.90
47490;DHT22;33226;56.996;14.584;2022-08-16T04:54:48;18.60;99.90
47490;DHT22;33226;56.996;14.584;2022-08-16T04:57:13;18.60;99.90
47490;DHT22;33226;56.996;14.584;2022-08-16T04:59:39;18.70;99.90
47490;DHT22;33226;56.996;14.584;2022-08-16T05:02:04;18.70;99.90
47490;DHT22;33226;56.996;14.584;2022-08-16T05:04:30;18.70;99.90
47490;DHT22;33226;56.996;14.584;2022-08-16T05:06:56;18.70;99.90
47490;DHT22;33226;56.996;14.584;2022-08-16T05:09:22;18.70;99.90
47490;DHT22;33226;56.996;14.584;2022-08-16T05:11:48;18.80;99.90
47490;DHT22;33226;56.996;14.584;2022-08-16T05:14:13;18.80;99.90
47490;DHT22;33226;56.996;14.584;2022-08-16T05:16:39;18.80;99.90
47490;DHT22;33226;56.996;14.584;2022-08-16T05:19:06;18.90;99.90
47490;DHT22;33226;56.996;14.584;2022-08-16T05:21:33;18.80;99.90
47490;DHT22;33226;56.996;14.584;2022-08-16T05:24:00;18.90;99.90
47490;DHT22;33226;56.996;14.584;2022-08-16T05:26:30;18.90;99.90
47490;DHT22;33226;56.996;14.584;2022-08-16T05:28:58;18.90;99.90
47490;DHT22;33226;56.996;14.584;2022-08-16T05:31:25;19.00;99.90
47490;DHT22;33226;56.996;14.584;2022-08-16T05:33:51;19.00;99.90
47490;DHT22;33226;56.996;14.584;2022-08-16T05:36:17;19.10;99.90
47490;DHT22;33226;56.996;14.584;2022-08-16T05:38:42;19.10;99.90
47490;DHT22;33226;56.996;14.584;2022-08-16T05:41:08;19.20;99.90
47490;DHT22;33226;56.996;14.584;2022-08-16T05:43:34;19.20;99.90
47490;DHT22;33226;56.996;14.584;2022-08-16T05:46:00;19.30;99.90
47490;DHT22;33226;56.996;14.584;2022-08-16T05:48:26;19.30;99.90
47490;DHT22;33226;56.996;14.584;2022-08-16T05:50:51;19.50;99.90
47490;DHT22;33226;56.996;14.584;2022-08-16T05:53:17;19.60;99.90
47490;DHT22;33226;56.996;14.584;2022-08-16T05:55:42;19.80;99.90
47490;DHT22;33226;56.996;14.584;2022-08-16T05:58:08;20.00;99.90
47490;DHT22;33226;56.996;14.584;2022-08-16T06:00:34;20.10;99.90
47490;DHT22;33226;56.996;14.584;2022-08-16T06:03:00;20.40;99.90
47490;DHT22;33226;56.996;14.584;2022-08-16T06:05:26;20.60;99.90
47490;DHT22;33226;56.996;14.584;2022-08-16T06:07:51;20.90;99.90
47490;DHT22;33226;56.996;14.584;2022-08-16T06:10:18;21.10;99.90
47490;DHT22;33226;56.996;14.584;2022-08-16T06:12:43;21.30;99.90
47490;DHT22;33226;56.996;14.584;2022-08-16T06:15:13;21.60;99.90
47490;DHT22;33226;56.996;14.584;2022-08-16T06:17:40;21.90;99.90
47490;DHT22;33226;56.996;14.584;2022-08-16T06:20:06;22.20;99.90
47490;DHT22;33226;56.996;14.584;2022-08-16T06:22:32;22.60;99.90
47490;DHT22;33226;56.996;14.584;2022-08-16T06:24:59;22.90;99.90
47490;DHT22;33226;56.996;14.584;2022-08-16T06:27:25;23.10;99.90
47490;DHT22;33226;56.996;14.584;2022-08-16T06:29:50;23.40;99.90
47490;DHT22;33226;56.996;14.584;2022-08-16T06:32:16;23.60;99.90
47490;DHT22;33226;56.996;14.584;2022-08-16T06:34:41;23.90;99.90
47490;DHT22;33226;56.996;14.584;2022-08-16T06:37:07;24.10;99.90
47490;DHT22;33226;56.996;14.584;2022-08-16T06:39:33;24.40;99.90
47490;DHT22;33226;56.996;14.584;2022-08-16T06:42:00;24.50;99.90
47490;DHT22;33226;56.996;14.584;2022-08-16T06:44:26;24.60;99.90
47490;DHT22;33226;56.996;14.584;2022-08-16T06:46:51;24.70;99.90
47490;DHT22;33226;56.996;14.584;2022-08-16T06:49:17;24.90;99.90
47490;DHT22;33226;56.996;14.584;2022-08-16T06:51:43;25.10;99.90
47490;DHT22;33226;56.996;14.584;2022-08-16T06:54:09;25.30;99.90
47490;DHT22;33226;56.996;14.584;2022-08-16T06:56:35;25.30;99.90
47490;DHT22;33226;56.996;14.584;2022-08-16T06:59:01;25.50;99.90
47490;DHT22;33226;56.996;14.584;2022-08-16T07:01:27;25.60;99.90
47490;DHT22;33226;56.996;14.584;2022-08-16T07:03:53;25.70;99.90
47490;DHT22;33226;56.996;14.584;2022-08-16T07:06:19;25.80;99.90
47490;DHT22;33226;56.996;14.584;2022-08-16T07:08:46;25.70;99.90
47490;DHT22;33226;56.996;14.584;2022-08-16T07:11:16;26.10;99.90
47490;DHT22;33226;56.996;14.584;2022-08-16T07:13:42;26.20;99.90
47490;DHT22;33226;56.996;14.584;2022-08-16T07:16:11;26.60;99.90
47490;DHT22;33226;56.996;14.584;2022-08-16T07:18:40;26.80;99.90
47490;DHT22;33226;56.996;14.584;2022-08-16T07:21:09;27.00;99.90
47490;DHT22;33226;56.996;14.584;2022-08-16T07:23:35;27.00;99.90
47490;DHT22;33226;56.996;14.584;2022-08-16T07:26:03;27.10;99.90
47490;DHT22;33226;56.996;14.584;2022-08-16T07:28:29;26.90;99.90
47490;DHT22;33226;56.996;14.584;2022-08-16T07:30:56;26.80;99.90
47490;DHT22;33226;56.996;14.584;2022-08-16T07:33:22;27.00;99.90
47490;DHT22;33226;56.996;14.584;2022-08-16T07:35:47;26.70;99.90
47490;DHT22;33226;56.996;14.584;2022-08-16T07:38:13;26.60;99.90
47490;DHT22;33226;56.996;14.584;2022-08-16T07:40:41;26.30;99.90
47490;DHT22;33226;56.996;14.584;2022-08-16T07:43:07;26.30;99.90
47490;DHT22;33226;56.996;14.584;2022-08-16T07:45:33;26.40;99.90
47490;DHT22;33226;56.996;14.584;2022-08-16T07:47:58;26.60;99.90
47490;DHT22;33226;56.996;14.584;2022-08-16T07:50:24;26.90;99.90
47490;DHT22;33226;56.996;14.584;2022-08-16T07:52:51;27.10;99.90
47490;DHT22;33226;56.996;14.584;2022-08-16T07:55:17;27.40;99.90
47490;DHT22;33226;56.996;14.584;2022-08-16T07:57:43;27.50;99.90
47490;DHT22;33226;56.996;14.584;2022-08-16T08:00:09;27.70;99.90
47490;DHT22;33226;56.996;14.584;2022-08-16T08:02:36;27.90;99.90
47490;DHT22;33226;56.996;14.584;2022-08-16T08:05:03;27.70;99.90
47490;DHT22;33226;56.996;14.584;2022-08-16T08:07:28;27.70;99.90
47490;DHT22;33226;56.996;14.584;2022-08-16T08:09:55;27.90;99.90
47490;DHT22;33226;56.996;14.584;2022-08-16T08:12:21;28.00;99.90
47490;DHT22;33226;56.996;14.584;2022-08-16T08:14:47;28.00;99.90
47490;DHT22;33226;56.996;14.584;2022-08-16T08:17:14;28.10;99.90
47490;DHT22;33226;56.996;14.584;2022-08-16T08:19:40;28.30;99.90
47490;DHT22;33226;56.996;14.584;2022-08-16T08:22:06;28.50;99.90
47490;DHT22;33226;56.996;14.584;2022-08-16T08:24:34;28.30;99.90
47490;DHT22;33226;56.996;14.584;2022-08-16T08:27:04;28.00;99.90
47490;DHT22;33226;56.996;14.584;2022-08-16T08:29:31;27.70;99.90
47490;DHT22;33226;56.996;14.584;2022-08-16T08:31:56;27.50;99.90
47490;DHT22;33226;56.996;14.584;2022-08-16T08:34:23;27.30;99.90
47490;DHT22;33226;56.996;14.584;2022-08-16T08:36:49;27.10;99.90
47490;DHT22;33226;56.996;14.584;2022-08-16T08:39:15;26.90;99.90
47490;DHT22;33226;56.996;14.584;2022-08-16T08:41:42;26.60;99.90
47490;DHT22;33226;56.996;14.584;2022-08-16T08:44:11;26.50;99.90
47490;DHT22;33226;56.996;14.584;2022-08-16T08:46:37;26.30;99.90
47490;DHT22;33226;56.996;14.584;2022-08-16T08:49:04;26.10;99.90
47490;DHT22;33226;56.996;14.584;2022-08-16T08:51:32;26.00;99.90
47490;DHT22;33226;56.996;14.584;2022-08-16T08:53:58;25.80;99.90
47490;DHT22;33226;56.996;14.584;2022-08-16T08:56:24;25.70;99.90
47490;DHT22;33226;56.996;14.584;2022-08-16T08:58:49;25.60;99.90
47490;DHT22;33226;56.996;14.584;2022-08-16T09:01:20;25.50;99.90
47490;DHT22;33226;56.996;14.584;2022-08-16T09:03:47;25.50;99.90
47490;DHT22;33226;56.996;14.584;2022-08-16T09:06:12;25.30;99.90
47490;DHT22;33226;56.996;14.584;2022-08-16T09:08:38;25.10;99.90
47490;DHT22;33226;56.996;14.584;2022-08-16T09:11:04;25.10;99.90
47490;DHT22;33226;56.996;14.584;2022-08-16T09:13:30;25.00;99.90
47490;DHT22;33226;56.996;14.584;2022-08-16T09:15:57;24.90;99.90
47490;DHT22;33226;56.996;14.584;2022-08-16T09:18:23;24.70;99.90
47490;DHT22;33226;56.996;14.584;2022-08-16T09:20:51;24.70;99.90
47490;DHT22;33226;56.996;14.584;2022-08-16T09:23:21;24.70;99.90
47490;DHT22;33226;56.996;14.584;2022-08-16T09:25:46;24.80;99.90
47490;DHT22;33226;56.996;14.584;2022-08-16T09:28:14;24.90;99.90
47490;DHT22;33226;56.996;14.584;2022-08-16T09:30:40;24.90;99.90
47490;DHT22;33226;56.996;14.584;2022-08-16T09:33:06;24.90;99.90
47490;DHT22;33226;56.996;14.584;2022-08-16T09:35:34;24.80;99.90
47490;DHT22;33226;56.996;14.584;2022-08-16T09:38:02;24.60;99.90
47490;DHT22;33226;56.996;14.584;2022-08-16T09:40:28;24.50;99.90
47490;DHT22;33226;56.996;14.584;2022-08-16T09:42:54;24.60;99.90
47490;DHT22;33226;56.996;14.584;2022-08-16T09:45:22;24.70;99.90
47490;DHT22;33226;56.996;14.584;2022-08-16T09:47:48;24.70;99.90
47490;DHT22;33226;56.996;14.584;2022-08-16T09:50:19;24.70;99.90
47490;DHT22;33226;56.996;14.584;2022-08-16T09:52:45;24.80;99.90
47490;DHT22;33226;56.996;14.584;2022-08-16T09:55:12;24.90;99.90
47490;DHT22;33226;56.996;14.584;2022-08-16T09:57:39;25.10;99.90
47490;DHT22;33226;56.996;14.584;2022-08-16T10:00:08;25.40;99.90
47490;DHT22;33226;56.996;14.584;2022-08-16T10:02:34;25.80;99.90
47490;DHT22;33226;56.996;14.584;2022-08-16T10:05:01;26.30;99.90
47490;DHT22;33226;56.996;14.584;2022-08-16T10:07:29;26.60;99.90
47490;DHT22;33226;56.996;14.584;2022-08-16T10:09:54;26.80;99.90
47490;DHT22;33226;56.996;14.584;2022-08-16T10:12:20;26.80;99.90
47490;DHT22;33226;56.996;14.584;2022-08-16T10:15:04;26.90;99.90
47490;DHT22;33226;56.996;14.584;2022-08-16T10:17:33;26.80;99.90
47490;DHT22;33226;56.996;14.584;2022-08-16T10:19:59;26.80;99.90
47490;DHT22;33226;56.996;14.584;2022-08-16T10:22:25;26.60;99.90
47490;DHT22;33226;56.996;14.584;2022-08-16T10:24:51;26.50;99.90
47490;DHT22;33226;56.996;14.584;2022-08-16T10:27:17;26.50;99.90
47490;DHT22;33226;56.996;14.584;2022-08-16T10:29:42;26.40;99.90
47490;DHT22;33226;56.996;14.584;2022-08-16T10:32:08;26.60;99.90
47490;DHT22;33226;56.996;14.584;2022-08-16T10:34:34;26.80;99.90
47490;DHT22;33226;56.996;14.584;2022-08-16T10:37:01;26.90;99.90
47490;DHT22;33226;56.996;14.584;2022-08-16T10:39:27;27.00;99.90
47490;DHT22;33226;56.996;14.584;2022-08-16T10:41:53;27.20;99.90
47490;DHT22;33226;56.996;14.584;2022-08-16T10:44:18;27.20;99.90
47490;DHT22;33226;56.996;14.584;2022-08-16T10:46:44;27.20;99.90
47490;DHT22;33226;56.996;14.584;2022-08-16T10:49:11;27.10;99.90
47490;DHT22;33226;56.996;14.584;2022-08-16T10:51:37;27.10;99.90
47490;DHT22;33226;56.996;14.584;2022-08-16T10:54:04;27.00;99.90
47490;DHT22;33226;56.996;14.584;2022-08-16T10:56:31;26.80;99.90
47490;DHT22;33226;56.996;14.584;2022-08-16T10:58:57;26.70;99.90
47490;DHT22;33226;56.996;14.584;2022-08-16T11:01:24;26.80;99.90
47490;DHT22;33226;56.996;14.584;2022-08-16T11:03:53;26.90;99.90
47490;DHT22;33226;56.996;14.584;2022-08-16T11:06:20;27.20;99.90
47490;DHT22;33226;56.996;14.584;2022-08-16T11:08:46;27.40;99.90
47490;DHT22;33226;56.996;14.584;2022-08-16T11:11:12;27.50;99.90
47490;DHT22;33226;56.996;14.584;2022-08-16T11:13:40;27.30;99.90
47490;DHT22;33226;56.996;14.584;2022-08-16T11:16:07;27.20;99.90
47490;DHT22;33226;56.996;14.584;2022-08-16T11:18:33;27.20;99.90
47490;DHT22;33226;56.996;14.584;2022-08-16T11:20:59;27.20;99.90
47490;DHT22;33226;56.996;14.584;2022-08-16T11:23:26;27.20;99.90
47490;DHT22;33226;56.996;14.584;2022-08-16T11:25:53;27.20;99.90
47490;DHT22;33226;56.996;14.584;2022-08-16T11:28:19;27.00;99.90
47490;DHT22;33226;56.996;14.584;2022-08-16T11:30:45;26.90;99.90
47490;DHT22;33226;56.996;14.584;2022-08-16T11:33:11;26.80;99.90
47490;DHT22;33226;56.996;14.584;2022-08-16T11:35:39;26.60;99.90
47490;DHT22;33226;56.996;14.584;2022-08-16T11:38:07;26.50;99.90
47490;DHT22;33226;56.996;14.584;2022-08-16T11:43:12;26.50;99.90
47490;DHT22;33226;56.996;14.584;2022-08-16T11:45:38;26.70;99.90
47490;DHT22;33226;56.996;14.584;2022-08-16T11:48:05;26.90;99.90
47490;DHT22;33226;56.996;14.584;2022-08-16T11:50:32;27.00;99.90
47490;DHT22;33226;56.996;14.584;2022-08-16T11:53:01;27.20;99.90
47490;DHT22;33226;56.996;14.584;2022-08-16T11:55:27;27.30;99.90
47490;DHT22;33226;56.996;14.584;2022-08-16T11:57:53;27.40;99.90
47490;DHT22;33226;56.996;14.584;2022-08-16T12:00:19;27.50;99.90
47490;DHT22;33226;56.996;14.584;2022-08-16T12:02:44;27.40;99.90
47490;DHT22;33226;56.996;14.584;2022-08-16T12:05:14;27.30;99.90
47490;DHT22;33226;56.996;14.584;2022-08-16T12:07:40;27.10;99.90
47490;DHT22;33226;56.996;14.584;2022-08-16T12:10:10;27.10;99.90
47490;DHT22;33226;56.996;14.584;2022-08-16T12:12:36;27.00;99.90
47490;DHT22;33226;56.996;14.584;2022-08-16T12:15:02;26.80;99.90
47490;DHT22;33226;56.996;14.584;2022-08-16T12:17:30;26.70;99.90
47490;DHT22;33226;56.996;14.584;2022-08-16T12:19:56;26.70;99.90
47490;DHT22;33226;56.996;14.584;2022-08-16T12:22:22;26.70;99.90
47490;DHT22;33226;56.996;14.584;2022-08-16T12:24:49;26.80;99.90
47490;DHT22;33226;56.996;14.584;2022-08-16T12:27:15;26.80;99.90
47490;DHT22;33226;56.996;14.584;2022-08-16T12:29:41;27.00;99.90
47490;DHT22;33226;56.996;14.584;2022-08-16T12:32:07;27.10;99.90
47490;DHT22;33226;56.996;14.584;2022-08-16T12:34:32;27.20;99.90
47490;DHT22;33226;56.996;14.584;2022-08-16T12:36:58;27.30;99.90
47490;DHT22;33226;56.996;14.584;2022-08-16T12:39:27;27.50;99.90
47490;DHT22;33226;56.996;14.584;2022-08-16T12:41:53;27.50;99.90
47490;DHT22;33226;56.996;14.584;2022-08-16T12:44:19;27.70;99.90
47490;DHT22;33226;56.996;14.584;2022-08-16T12:46:44;27.80;99.90
47490;DHT22;33226;56.996;14.584;2022-08-16T12:49:30;27.90;99.90
47490;DHT22;33226;56.996;14.584;2022-08-16T12:51:55;28.00;99.90
47490;DHT22;33226;56.996;14.584;2022-08-16T12:54:21;28.00;99.90
47490;DHT22;33226;56.996;14.584;2022-08-16T12:56:47;28.00;99.90
47490;DHT22;33226;56.996;14.584;2022-08-16T12:59:12;27.90;99.90
47490;DHT22;33226;56.996;14.584;2022-08-16T13:01:39;27.80;99.90
47490;DHT22;33226;56.996;14.584;2022-08-16T13:04:06;27.80;99.90
47490;DHT22;33226;56.996;14.584;2022-08-16T13:06:33;27.70;99.90
47490;DHT22;33226;56.996;14.584;2022-08-16T13:09:00;27.70;99.90
47490;DHT22;33226;56.996;14.584;2022-08-16T13:11:43;27.60;99.90
47490;DHT22;33226;56.996;14.584;2022-08-16T13:14:14;27.60;99.90
47490;DHT22;33226;56.996;14.584;2022-08-16T13:16:40;27.60;99.90
47490;DHT22;33226;56.996;14.584;2022-08-16T13:19:06;27.50;99.90
47490;DHT22;33226;56.996;14.584;2022-08-16T13:21:33;27.40;99.90
47490;DHT22;33226;56.996;14.584;2022-08-16T13:23:58;27.30;99.90
47490;DHT22;33226;56.996;14.584;2022-08-16T13:26:25;27.20;99.90
47490;DHT22;33226;56.996;14.584;2022-08-16T13:28:50;27.10;99.90
47490;DHT22;33226;56.996;14.584;2022-08-16T13:31:17;27.10;99.90
47490;DHT22;33226;56.996;14.584;2022-08-16T13:33:43;27.10;99.90
47490;DHT22;33226;56.996;14.584;2022-08-16T13:36:10;27.10;99.90
47490;DHT22;33226;56.996;14.584;2022-08-16T13:38:37;27.20;99.90
47490;DHT22;33226;56.996;14.584;2022-08-16T13:41:06;27.10;99.90
47490;DHT22;33226;56.996;14.584;2022-08-16T13:43:32;27.10;99.90
47490;DHT22;33226;56.996;14.584;2022-08-16T13:45:58;27.10;99.90
47490;DHT22;33226;56.996;14.584;2022-08-16T13:48:27;27.20;99.90
47490;DHT22;33226;56.996;14.584;2022-08-16T13:50:54;27.30;99.90
47490;DHT22;33226;56.996;14.584;2022-08-16T13:53:20;27.30;99.90
47490;DHT22;33226;56.996;14.584;2022-08-16T13:55:46;27.30;99.90
47490;DHT22;33226;56.996;14.584;2022-08-16T13:58:12;27.30;99.90
47490;DHT22;33226;56.996;14.584;2022-08-16T14:00:38;27.30;99.90
47490;DHT22;33226;56.996;14.584;2022-08-16T14:03:07;27.20;99.90
47490;DHT22;33226;56.996;14.584;2022-08-16T14:05:33;27.20;99.90
47490;DHT22;33226;56.996;14.584;2022-08-16T14:07:58;27.10;99.90
47490;DHT22;33226;56.996;14.584;2022-08-16T14:10:24;27.10;99.90
47490;DHT22;33226;56.996;14.584;2022-08-16T14:12:50;27.10;99.90
47490;DHT22;33226;56.996;14.584;2022-08-16T14:15:16;27.10;99.90
47490;DHT22;33226;56.996;14.584;2022-08-16T14:17:43;27.10;99.90
47490;DHT22;33226;56.996;14.584;2022-08-16T14:20:09;27.00;99.90
47490;DHT22;33226;56.996;14.584;2022-08-16T14:22:37;27.00;99.90
47490;DHT22;33226;56.996;14.584;2022-08-16T14:25:06;27.00;99.90
47490;DHT22;33226;56.996;14.584;2022-08-16T14:27:33;27.00;99.90
47490;DHT22;33226;56.996;14.584;2022-08-16T14:30:00;27.00;99.90
47490;DHT22;33226;56.996;14.584;2022-08-16T14:32:28;27.00;99.90
47490;DHT22;33226;56.996;14.584;2022-08-16T14:34:54;27.00;99.90
47490;DHT22;33226;56.996;14.584;2022-08-16T14:37:21;27.10;99.90
47490;DHT22;33226;56.996;14.584;2022-08-16T14:39:47;27.10;99.90
47490;DHT22;33226;56.996;14.584;2022-08-16T14:42:15;27.10;99.90
47490;DHT22;33226;56.996;14.584;2022-08-16T14:44:43;27.20;99.90
47490;DHT22;33226;56.996;14.584;2022-08-16T14:47:09;27.20;99.90
47490;DHT22;33226;56.996;14.584;2022-08-16T14:49:35;27.10;99.90
47490;DHT22;33226;56.996;14.584;2022-08-16T14:52:04;27.10;99.90
47490;DHT22;33226;56.996;14.584;2022-08-16T14:54:29;27.10;99.90
47490;DHT22;33226;56.996;14.584;2022-08-16T14:56:55;27.10;99.90
47490;DHT22;33226;56.996;14.584;2022-08-16T14:59:22;27.10;99.90
47490;DHT22;33226;56.996;14.584;2022-08-16T15:01:48;27.10;99.90
47490;DHT22;33226;56.996;14.584;2022-08-16T15:04:14;27.00;99.90
47490;DHT22;33226;56.996;14.584;2022-08-16T15:06:40;27.00;99.90
47490;DHT22;33226;56.996;14.584;2022-08-16T15:09:05;27.00;99.90
47490;DHT22;33226;56.996;14.584;2022-08-16T15:11:31;26.90;99.90
47490;DHT22;33226;56.996;14.584;2022-08-16T15:13:57;26.90;99.90
47490;DHT22;33226;56.996;14.584;2022-08-16T15:16:22;26.90;99.90
47490;DHT22;33226;56.996;14.584;2022-08-16T15:18:48;26.90;99.90
47490;DHT22;33226;56.996;14.584;2022-08-16T15:21:14;26.90;99.90